createdAt,value
2018-12-02T00:00:15.892Z,0.45
2018-12-02T00:01:26.093Z,0.35
2018-12-02T00:02:36.234Z,0.28
2018-12-02T00:03:46.142Z,0.39
2018-12-02T00:04:56.330Z,0.32
2018-12-02T00:06:07.181Z,0.27
2018-12-02T00:07:17.107Z,0.37
2018-12-02T00:08:27.044Z,0.34
2018-12-02T00:09:37.518Z,0.35
2018-12-02T00:10:47.938Z,0.28
2018-12-02T00:11:58.052Z,0.26
2018-12-02T00:13:07.942Z,0.31
2018-12-02T00:14:18.059Z,0.32
2018-12-02T00:15:27.932Z,0.28
2018-12-02T00:16:38.318Z,0.31
2018-12-02T00:17:48.456Z,0.26
2018-12-02T00:18:58.613Z,0.26
2018-12-02T00:20:08.747Z,0.28
2018-12-02T00:21:19.122Z,0.27
2018-12-02T00:22:29.316Z,0.27
2018-12-02T00:23:39.194Z,0.24
2018-12-02T00:24:49.311Z,0.21
2018-12-02T00:25:59.418Z,0.24
2018-12-02T00:27:09.549Z,0.21
2018-12-02T00:28:19.704Z,0.21
2018-12-02T00:29:29.592Z,0.27
2018-12-02T00:30:39.717Z,0.21
2018-12-02T00:31:49.906Z,0.1
2018-12-02T00:33:00.043Z,0.1
2018-12-02T00:34:10.254Z,0.1
2018-12-02T00:35:20.389Z,0.13
2018-12-02T00:36:30.554Z,0.1
2018-12-02T00:37:40.687Z,0.03
2018-12-02T00:38:50.832Z,0.02
2018-12-02T00:40:03.364Z,0.1
2018-12-02T00:41:13.496Z,0.05
2018-12-02T00:42:23.641Z,0.13
2018-12-02T00:43:33.245Z,0.01
2018-12-02T00:44:43.375Z,0.08
2018-12-02T00:45:53.490Z,0.05
2018-12-02T00:47:04.320Z,0.05
2018-12-02T00:48:14.210Z,0.08
2018-12-02T00:49:24.097Z,0.16
2018-12-02T00:50:34.272Z,0.14
2018-12-02T00:51:44.176Z,0.2
2018-12-02T00:52:54.346Z,0.21
2018-12-02T00:54:04.273Z,0.21
2018-12-02T00:55:14.095Z,0.23
2018-12-02T00:56:24.241Z,0.13
2018-12-02T00:57:34.422Z,0.2
2018-12-02T00:58:44.962Z,0.2
2018-12-02T00:59:54.834Z,0.31
2018-12-02T01:01:04.954Z,0.27
2018-12-02T01:02:15.111Z,0.28
2018-12-02T01:03:25.253Z,0.35
2018-12-02T01:04:35.366Z,0.41
2018-12-02T01:05:45.500Z,0.37
2018-12-02T01:06:58.272Z,0.38
2018-12-02T01:08:08.427Z,0.41
2018-12-02T01:09:18.836Z,0.47
2018-12-02T01:10:28.722Z,0.47
2018-12-02T01:11:39.068Z,0.52
2018-12-02T01:12:49.215Z,0.47
2018-12-02T01:13:59.349Z,0.58
2018-12-02T01:15:09.473Z,0.63
2018-12-02T01:16:19.611Z,0.61
2018-12-02T01:17:29.765Z,0.66
2018-12-02T01:18:39.880Z,0.69
2018-12-02T01:19:50.004Z,0.71
2018-12-02T01:20:59.883Z,0.84
2018-12-02T01:22:09.999Z,0.79
2018-12-02T01:23:20.143Z,0.82
2018-12-02T01:24:30.263Z,0.84
2018-12-02T01:25:40.387Z,0.85
2018-12-02T01:26:51.434Z,0.86
2018-12-02T01:28:01.557Z,0.92
2018-12-02T01:29:11.698Z,0.94
2018-12-02T01:30:21.815Z,0.85
2018-12-02T01:31:31.924Z,0.85
2018-12-02T01:32:42.086Z,0.85
2018-12-02T01:33:52.233Z,0.94
2018-12-02T01:35:02.370Z,0.96
2018-12-02T01:36:12.498Z,0.93
2018-12-02T01:37:22.885Z,0.85
2018-12-02T01:38:33.077Z,0.96
2018-12-02T01:39:42.938Z,0.85
2018-12-02T01:40:53.055Z,0.92
2018-12-02T01:42:04.585Z,0.9
2018-12-02T01:43:14.729Z,0.94
2018-12-02T01:44:24.643Z,0.9
2018-12-02T01:45:34.506Z,0.82
2018-12-02T01:46:44.641Z,0.89
2018-12-02T01:47:54.751Z,0.92
2018-12-02T01:49:04.663Z,0.89
2018-12-02T01:50:14.797Z,0.86
2018-12-02T01:51:24.914Z,0.76
2018-12-02T01:52:35.504Z,0.79
2018-12-02T01:53:45.410Z,0.86
2018-12-02T01:54:55.529Z,0.85
2018-12-02T01:56:06.485Z,0.86
2018-12-02T01:57:16.573Z,0.92
2018-12-02T01:58:26.690Z,0.94
2018-12-02T01:59:36.828Z,0.97
2018-12-02T02:00:46.477Z,0.94
2018-12-02T02:01:56.583Z,1.08
2018-12-02T02:03:06.511Z,1.04
2018-12-02T02:04:16.346Z,1.17
2018-12-02T02:05:26.484Z,1.14
2018-12-02T02:06:36.627Z,1.14
2018-12-02T02:07:47.332Z,1.2
2018-12-02T02:08:57.486Z,1.17
2018-12-02T02:10:09.284Z,1.17
2018-12-02T02:11:19.416Z,1.24
2018-12-02T02:12:29.100Z,1.15
2018-12-02T02:13:39.299Z,1.18
2018-12-02T02:14:49.413Z,1.21
2018-12-02T02:15:59.539Z,1.21
2018-12-02T02:17:09.657Z,1.18
2018-12-02T02:18:20.047Z,1.22
2018-12-02T02:19:30.230Z,1.24
2018-12-02T02:20:40.101Z,1.24
2018-12-02T02:21:49.975Z,1.2
2018-12-02T02:23:00.391Z,1.18
2018-12-02T02:24:10.501Z,1.22
2018-12-02T02:25:20.627Z,1.24
2018-12-02T02:26:30.750Z,1.28
2018-12-02T02:27:41.114Z,1.3
2018-12-02T02:28:50.969Z,1.22
2018-12-02T02:30:00.832Z,1.22
2018-12-02T02:31:10.995Z,1.32
2018-12-02T02:32:20.863Z,1.36
2018-12-02T02:33:31.018Z,1.24
2018-12-02T02:34:41.372Z,1.36
2018-12-02T02:35:51.501Z,1.3
2018-12-02T02:37:01.903Z,1.32
2018-12-02T02:38:11.791Z,1.26
2018-12-02T02:39:21.660Z,1.33
2018-12-02T02:40:31.587Z,1.28
2018-12-02T02:41:41.709Z,1.36
2018-12-02T02:42:51.927Z,1.3
2018-12-02T02:44:15.296Z,1.3
2018-12-02T02:45:25.236Z,1.26
2018-12-02T02:46:35.110Z,1.33
2018-12-02T02:47:45.023Z,1.3
2018-12-02T02:48:55.225Z,1.3
2018-12-02T02:50:08.266Z,1.28
2018-12-02T02:51:18.182Z,1.28
2018-12-02T02:52:28.366Z,1.36
2018-12-02T02:53:38.509Z,1.35
2018-12-02T02:54:48.762Z,1.32
2018-12-02T02:55:58.878Z,1.38
2018-12-02T02:57:10.449Z,1.32
2018-12-02T02:58:20.558Z,1.4
2018-12-02T02:59:30.683Z,1.42
2018-12-02T03:00:40.494Z,1.42
2018-12-02T03:01:50.868Z,1.47
2018-12-02T03:03:01.200Z,1.48
2018-12-02T03:34:59.547Z,-0.52
2018-12-02T03:36:09.670Z,-0.58
2018-12-02T03:37:19.271Z,-0.46
2018-12-02T03:38:29.137Z,-0.48
2018-12-02T03:39:39.301Z,-0.37
2018-12-02T03:40:49.426Z,-0.4
2018-12-02T03:41:59.575Z,-0.31
2018-12-02T03:43:09.737Z,-0.22
2018-12-02T03:44:19.863Z,-0.12
2018-12-02T03:45:30.022Z,0.05
2018-12-02T03:46:39.574Z,0.09
2018-12-02T03:47:49.704Z,0.21
2018-12-02T03:48:59.342Z,0.28
2018-12-02T03:50:17.079Z,0.42
2018-12-02T03:51:27.539Z,0.47
2018-12-02T03:52:37.723Z,0.61
2018-12-02T03:53:47.840Z,0.72
2018-12-02T03:54:58.028Z,0.67
2018-12-02T03:56:08.131Z,0.78
2018-12-02T03:57:17.948Z,0.9
2018-12-02T03:58:28.091Z,0.94
2018-12-02T03:59:38.205Z,0.99
2018-12-02T04:00:48.342Z,1.03
2018-12-02T04:01:58.209Z,1.03
2018-12-02T04:03:08.346Z,1.03
2018-12-02T04:04:18.483Z,1.12
2018-12-02T04:05:28.627Z,1.15
2018-12-02T04:06:38.748Z,1.18
2018-12-02T04:07:48.867Z,1.2
2018-12-02T04:08:58.990Z,1.21
2018-12-02T04:10:08.821Z,1.21
2018-12-02T04:11:18.970Z,1.24
2018-12-02T04:12:29.118Z,1.21
2018-12-02T04:13:39.250Z,1.24
2018-12-02T04:14:49.138Z,1.35
2018-12-02T04:15:59.489Z,1.3
2018-12-02T04:17:09.847Z,1.32
2018-12-02T04:18:19.983Z,1.35
2018-12-02T04:19:30.124Z,1.36
2018-12-02T04:20:40.257Z,1.35
2018-12-02T04:21:50.411Z,1.4
2018-12-02T04:23:00.543Z,1.35
2018-12-02T04:24:10.677Z,1.36
2018-12-02T04:25:20.807Z,1.33
2018-12-02T04:26:30.995Z,1.3
2018-12-02T04:27:41.109Z,1.38
2018-12-02T04:28:50.968Z,1.33
2018-12-02T04:30:01.998Z,1.36
2018-12-02T04:31:11.899Z,1.3
2018-12-02T04:32:22.029Z,1.32
2018-12-02T04:33:32.150Z,1.32
2018-12-02T04:34:42.277Z,1.4
2018-12-02T04:35:52.428Z,1.33
2018-12-02T04:37:02.690Z,1.3
2018-12-02T04:38:12.821Z,1.36
2018-12-02T04:39:22.942Z,1.4
2018-12-02T04:40:33.062Z,1.35
2018-12-02T04:41:43.191Z,1.35
2018-12-02T04:42:53.429Z,1.33
2018-12-02T04:44:03.763Z,1.35
2018-12-02T04:45:13.949Z,1.4
2018-12-02T04:46:24.100Z,1.46
2018-12-02T04:47:34.227Z,1.47
2018-12-02T04:48:44.343Z,1.4
2018-12-02T04:49:54.221Z,1.35
2018-12-02T04:51:04.096Z,1.36
2018-12-02T04:52:14.540Z,1.38
2018-12-02T04:53:24.674Z,1.4
2018-12-02T04:54:34.823Z,1.4
2018-12-02T04:55:45.171Z,1.36
2018-12-02T04:56:55.295Z,1.36
2018-12-02T04:58:06.964Z,1.36
2018-12-02T04:59:17.080Z,1.33
2018-12-02T05:00:27.206Z,1.36
2018-12-02T05:01:37.348Z,1.36
2018-12-02T05:02:47.539Z,1.4
2018-12-02T05:03:57.444Z,1.5
2018-12-02T05:05:07.574Z,1.56
2018-12-02T05:06:18.230Z,1.48
2018-12-02T05:07:28.369Z,1.44
2018-12-02T05:08:38.604Z,1.47
2018-12-02T05:09:48.739Z,1.42
2018-12-02T05:10:58.612Z,1.42
2018-12-02T05:12:09.045Z,1.44
2018-12-02T05:13:18.872Z,1.5
2018-12-02T05:14:29.010Z,1.48
2018-12-02T05:15:38.842Z,1.44
2018-12-02T05:16:48.981Z,1.46
2018-12-02T05:17:59.342Z,1.39
2018-12-02T05:19:09.514Z,1.44
2018-12-02T05:20:19.956Z,1.42
2018-12-02T05:21:30.070Z,1.46
2018-12-02T05:22:39.990Z,1.42
2018-12-02T05:23:50.117Z,1.46
2018-12-02T05:25:00.386Z,1.44
2018-12-02T05:26:10.611Z,1.5
2018-12-02T05:27:20.470Z,1.46
2018-12-02T05:28:30.337Z,1.48
2018-12-02T05:29:40.200Z,1.48
2018-12-02T05:30:50.350Z,1.5
2018-12-02T05:32:00.540Z,1.53
2018-12-02T05:33:10.671Z,1.48
2018-12-02T05:34:20.801Z,1.44
2018-12-02T05:35:30.679Z,1.51
2018-12-02T05:36:40.805Z,1.46
2018-12-02T05:37:51.230Z,1.42
2018-12-02T05:39:01.356Z,1.51
2018-12-02T05:40:11.238Z,1.46
2018-12-02T05:41:21.367Z,1.47
2018-12-02T05:42:31.501Z,1.46
2018-12-02T05:43:41.622Z,1.44
2018-12-02T05:44:51.752Z,1.4
2018-12-02T05:46:01.895Z,1.44
2018-12-02T05:47:11.714Z,1.39
2018-12-02T05:48:22.322Z,1.48
2018-12-02T05:49:32.458Z,1.42
2018-12-02T05:50:42.615Z,1.5
2018-12-02T05:51:52.719Z,1.46
2018-12-02T05:53:02.619Z,1.44
2018-12-02T05:54:12.724Z,1.39
2018-12-02T05:55:22.602Z,1.44
2018-12-02T05:56:32.740Z,1.46
2018-12-02T05:57:42.609Z,1.51
2018-12-02T05:58:52.722Z,1.44
2018-12-02T06:00:05.760Z,1.42
2018-12-02T06:01:16.091Z,1.48
2018-12-02T06:02:25.675Z,1.4
2018-12-02T06:03:35.802Z,1.46
2018-12-02T06:04:45.925Z,1.5
2018-12-02T06:05:56.068Z,1.42
2018-12-02T06:07:08.247Z,1.5
2018-12-02T06:08:18.378Z,1.47
2018-12-02T06:09:28.519Z,1.48
2018-12-02T06:10:38.654Z,1.44
2018-12-02T06:11:48.821Z,1.51
2018-12-02T06:12:58.980Z,1.48
2018-12-02T06:14:09.106Z,1.46
2018-12-02T06:15:19.247Z,1.48
2018-12-02T06:16:29.332Z,1.56
2018-12-02T06:17:39.536Z,1.5
2018-12-02T06:18:49.667Z,1.54
2018-12-02T06:20:04.624Z,1.44
2018-12-02T06:21:14.739Z,1.53
2018-12-02T06:22:24.586Z,1.5
2018-12-02T06:23:34.709Z,1.51
2018-12-02T06:24:44.851Z,1.47
2018-12-02T06:25:54.716Z,1.47
2018-12-02T06:27:04.738Z,1.46
2018-12-02T06:28:14.601Z,1.5
2018-12-02T06:29:24.719Z,1.46
2018-12-02T06:30:34.858Z,1.5
2018-12-02T06:31:44.980Z,1.46
2018-12-02T06:32:55.099Z,1.56
2018-12-02T06:34:05.214Z,1.58
2018-12-02T06:35:15.098Z,1.61
2018-12-02T06:36:25.219Z,1.61
2018-12-02T06:37:35.390Z,1.57
2018-12-02T06:38:45.260Z,1.64
2018-12-02T06:39:55.400Z,1.6
2018-12-02T06:41:06.978Z,1.64
2018-12-02T06:42:17.149Z,1.6
2018-12-02T06:43:27.020Z,1.65
2018-12-02T06:44:37.159Z,1.54
2018-12-02T06:45:47.280Z,1.65
2018-12-02T06:46:57.418Z,1.68
2018-12-02T06:48:07.612Z,1.57
2018-12-02T06:49:17.495Z,1.64
2018-12-02T06:50:27.357Z,1.66
2018-12-02T06:51:37.513Z,1.69
2018-12-02T06:52:47.624Z,1.75
2018-12-02T06:53:57.950Z,1.72
2018-12-02T06:55:08.100Z,1.76
2018-12-02T06:56:17.953Z,1.69
2018-12-02T06:57:27.857Z,1.78
2018-12-02T06:58:37.753Z,1.71
2018-12-02T06:59:47.672Z,1.76
2018-12-02T07:00:57.839Z,1.78
2018-12-02T07:02:08.057Z,1.83
2018-12-02T07:03:18.409Z,1.79
2018-12-02T07:04:28.529Z,1.82
2018-12-02T07:05:38.356Z,1.89
2018-12-02T07:06:48.491Z,1.9
2018-12-02T07:07:58.349Z,1.97
2018-12-02T07:09:10.641Z,1.98
2018-12-02T07:10:20.508Z,2.02
2018-12-02T07:11:30.671Z,2.12
2018-12-02T07:12:40.829Z,2.18
2018-12-02T07:13:50.944Z,2.16
2018-12-02T07:15:00.755Z,2.18
2018-12-02T07:16:10.941Z,2.18
2018-12-02T07:17:21.113Z,2.18
2018-12-02T07:18:31.253Z,2.23
2018-12-02T07:19:41.384Z,2.31
2018-12-02T07:20:51.271Z,2.34
2018-12-02T07:22:01.160Z,2.3
2018-12-02T07:23:11.282Z,2.34
2018-12-02T07:24:21.490Z,2.33
2018-12-02T07:25:31.633Z,2.36
2018-12-02T07:26:41.766Z,2.31
2018-12-02T07:27:51.902Z,2.41
2018-12-02T07:29:02.037Z,2.42
2018-12-02T07:30:12.172Z,2.41
2018-12-02T07:31:22.334Z,2.47
2018-12-02T07:32:32.510Z,2.44
2018-12-02T07:33:43.955Z,2.51
2018-12-02T07:34:54.074Z,2.63
2018-12-02T07:36:03.776Z,2.72
2018-12-02T07:37:13.893Z,2.73
2018-12-02T07:38:23.777Z,2.77
2018-12-02T07:39:34.414Z,2.93
2018-12-02T07:40:44.610Z,2.91
2018-12-02T07:41:54.756Z,3.05
2018-12-02T07:43:04.678Z,3.11
2018-12-02T07:44:14.568Z,3.11
2018-12-02T07:45:24.682Z,3.13
2018-12-02T07:46:34.809Z,3.16
2018-12-02T07:47:44.940Z,3.19
2018-12-02T07:48:55.334Z,3.26
2018-12-02T07:50:05.453Z,3.32
2018-12-02T07:51:15.589Z,3.39
2018-12-02T07:52:25.764Z,3.4
2018-12-02T07:53:36.155Z,3.4
2018-12-02T07:54:46.290Z,3.53
2018-12-02T07:55:56.399Z,3.43
2018-12-02T07:57:06.669Z,3.42
2018-12-02T07:58:17.468Z,3.48
2018-12-02T07:59:27.597Z,3.43
2018-12-02T08:00:37.729Z,3.35
2018-12-02T08:01:47.644Z,3.3
2018-12-02T08:02:57.811Z,3.37
2018-12-02T08:04:07.724Z,3.32
2018-12-02T08:05:17.594Z,3.26
2018-12-02T08:06:27.744Z,3.24
2018-12-02T08:07:37.868Z,3.14
2018-12-02T08:08:48.004Z,3.13
2018-12-02T08:09:58.230Z,3.19
2018-12-02T08:11:08.360Z,3.08
2018-12-02T08:12:18.485Z,3.14
2018-12-02T08:13:28.588Z,3.24
2018-12-02T08:14:38.516Z,3.27
2018-12-02T08:15:48.828Z,3.27
2018-12-02T08:16:58.698Z,3.3
2018-12-02T08:18:09.667Z,3.34
2018-12-02T08:19:19.841Z,3.42
2018-12-02T08:20:29.999Z,3.42
2018-12-02T08:21:40.163Z,3.46
2018-12-02T08:22:55.853Z,3.54
2018-12-02T08:24:07.143Z,3.48
2018-12-02T08:25:17.264Z,3.6
2018-12-02T08:26:27.451Z,3.58
2018-12-02T08:27:37.648Z,3.56
2018-12-02T08:28:47.853Z,3.53
2018-12-02T08:29:58.178Z,3.54
2018-12-02T08:31:11.044Z,3.56
2018-12-02T08:32:21.439Z,3.58
2018-12-02T08:33:31.737Z,3.53
2018-12-02T08:34:42.088Z,3.53
2018-12-02T08:35:51.965Z,3.48
2018-12-02T08:37:02.134Z,3.69
2018-12-02T08:38:12.269Z,3.71
2018-12-02T08:39:22.625Z,3.75
2018-12-02T08:40:32.754Z,3.84
2018-12-02T08:41:42.981Z,3.85
2018-12-02T08:42:53.113Z,3.9
2018-12-02T08:44:03.288Z,3.86
2018-12-02T08:45:13.428Z,3.94
2018-12-02T08:46:23.567Z,3.94
2018-12-02T08:47:33.698Z,3.85
2018-12-02T08:48:43.839Z,3.86
2018-12-02T08:49:53.951Z,3.94
2018-12-02T08:51:04.098Z,3.82
2018-12-02T08:52:13.991Z,3.89
2018-12-02T08:53:24.111Z,3.86
2018-12-02T08:54:34.475Z,3.92
2018-12-02T08:55:44.650Z,3.89
2018-12-02T08:56:54.856Z,3.9
2018-12-02T08:58:08.040Z,3.81
2018-12-02T08:59:17.919Z,3.82
2018-12-02T09:00:28.047Z,3.78
2018-12-02T09:01:38.204Z,3.76
2018-12-02T09:10:12.619Z,3.4
2018-12-02T09:11:23.071Z,3.45
2018-12-02T09:12:33.047Z,3.45
2018-12-02T09:13:43.173Z,3.54
2018-12-02T09:14:53.318Z,3.51
2018-12-02T09:16:03.186Z,3.53
2018-12-02T09:17:13.441Z,3.58
2018-12-02T09:18:23.578Z,3.53
2018-12-02T09:19:33.713Z,3.53
2018-12-02T09:20:43.860Z,3.61
2018-12-02T09:21:54.241Z,3.66
2018-12-02T09:23:04.413Z,3.76
2018-12-02T09:24:14.537Z,3.66
2018-12-02T09:25:24.428Z,3.79
2018-12-02T09:26:34.560Z,3.84
2018-12-02T09:27:44.715Z,3.86
2018-12-02T09:28:54.911Z,4.04
2018-12-02T09:30:05.211Z,4.11
2018-12-02T09:31:15.476Z,4.2
2018-12-02T09:32:25.824Z,4.26
2018-12-02T09:33:36.014Z,4.32
2018-12-02T09:34:46.193Z,4.53
2018-12-02T09:35:56.068Z,4.65
2018-12-02T09:37:08.255Z,4.71
2018-12-02T09:38:18.140Z,4.76
2018-12-02T09:39:28.072Z,4.78
2018-12-02T09:40:38.145Z,4.79
2018-12-02T09:41:48.263Z,4.87
2018-12-02T09:42:58.398Z,4.68
2018-12-02T09:44:08.539Z,4.66
2018-12-02T09:45:18.657Z,4.51
2018-12-02T09:46:28.799Z,4.47
2018-12-02T09:47:38.994Z,4.48
2018-12-02T09:48:49.126Z,4.35
2018-12-02T09:49:59.276Z,4.39
2018-12-02T09:51:10.166Z,4.36
2018-12-02T09:52:20.307Z,4.36
2018-12-02T09:53:30.461Z,4.33
2018-12-02T09:54:40.608Z,4.32
2018-12-02T09:55:50.739Z,4.22
2018-12-02T09:57:00.891Z,4.3
2018-12-02T09:58:11.026Z,4.32
2018-12-02T09:59:21.148Z,4.22
2018-12-02T10:00:36.250Z,4.14
2018-12-02T10:01:46.128Z,4.35
2018-12-02T10:02:56.279Z,4.3
2018-12-02T10:04:06.401Z,4.32
2018-12-02T10:05:16.587Z,4.36
2018-12-02T10:06:26.780Z,4.33
2018-12-02T10:07:36.654Z,4.39
2018-12-02T10:08:45.974Z,4.58
2018-12-02T10:09:56.305Z,4.85
2018-12-02T10:11:07.186Z,5.05
2018-12-02T10:12:17.056Z,5.06
2018-12-02T10:13:27.239Z,5.12
2018-12-02T10:14:37.371Z,5.2
2018-12-02T10:15:47.508Z,5.31
2018-12-02T10:16:57.645Z,5.42
2018-12-02T10:18:07.456Z,5.36
2018-12-02T10:19:17.600Z,5.34
2018-12-02T10:20:27.471Z,5.33
2018-12-02T10:21:37.720Z,5.1
2018-12-02T10:22:47.846Z,5.08
2018-12-02T10:23:58.025Z,4.97
2018-12-02T10:25:08.159Z,4.95
2018-12-02T10:26:18.327Z,4.88
2018-12-02T10:27:28.527Z,4.83
2018-12-02T10:28:38.665Z,4.75
2018-12-02T10:29:48.793Z,4.69
2018-12-02T10:30:58.674Z,4.72
2018-12-02T10:32:12.290Z,4.68
2018-12-02T10:33:22.626Z,4.72
2018-12-02T10:34:32.764Z,4.78
2018-12-02T10:35:42.896Z,4.69
2018-12-02T10:36:53.040Z,4.64
2018-12-02T10:38:03.174Z,4.64
2018-12-02T10:39:13.369Z,4.65
2018-12-02T10:40:23.501Z,4.64
2018-12-02T10:41:33.370Z,4.54
2018-12-02T10:42:43.238Z,4.58
2018-12-02T10:43:53.370Z,4.6
2018-12-02T10:45:03.540Z,4.54
2018-12-02T10:46:15.880Z,4.46
2018-12-02T10:47:26.030Z,4.56
2018-12-02T10:48:36.188Z,4.53
2018-12-02T10:49:46.336Z,4.68
2018-12-02T10:50:56.473Z,4.69
2018-12-02T10:52:08.501Z,4.61
2018-12-02T10:53:18.897Z,4.6
2018-12-02T10:54:29.351Z,4.56
2018-12-02T10:55:39.526Z,4.48
2018-12-02T10:56:49.694Z,4.5
2018-12-02T10:57:59.860Z,4.42
2018-12-02T10:59:09.991Z,4.35
2018-12-02T11:00:20.115Z,4.42
2018-12-02T11:01:30.259Z,4.4
2018-12-02T11:02:40.234Z,4.51
2018-12-02T11:03:50.375Z,4.51
2018-12-02T11:05:00.512Z,4.47
2018-12-02T11:06:10.656Z,4.48
2018-12-02T11:07:20.784Z,4.39
2018-12-02T11:08:30.933Z,4.44
2018-12-02T11:09:41.070Z,4.46
2018-12-02T11:10:51.251Z,4.4
2018-12-02T11:12:01.419Z,4.39
2018-12-02T11:13:11.584Z,4.54
2018-12-02T11:14:21.795Z,4.51
2018-12-02T11:15:31.984Z,4.47
2018-12-02T11:16:42.125Z,4.39
2018-12-02T11:17:52.277Z,4.5
2018-12-02T11:19:02.442Z,4.6
2018-12-02T11:20:12.334Z,4.58
2018-12-02T11:21:22.482Z,4.54
2018-12-02T11:22:32.638Z,4.5
2018-12-02T11:23:43.017Z,4.5
2018-12-02T11:24:53.192Z,4.48
2018-12-02T11:26:03.544Z,4.48
2018-12-02T11:27:13.691Z,4.58
2018-12-02T11:28:23.861Z,4.51
2018-12-02T11:29:34.008Z,4.51
2018-12-02T11:30:44.187Z,4.51
2018-12-02T11:31:54.120Z,4.32
2018-12-02T11:33:04.947Z,4.48
2018-12-02T11:34:15.101Z,4.46
2018-12-02T11:35:25.434Z,4.47
2018-12-02T11:36:35.569Z,4.53
2018-12-02T11:37:45.961Z,4.39
2018-12-02T11:38:56.096Z,4.36
2018-12-02T11:40:08.240Z,4.4
2018-12-02T11:41:18.392Z,4.48
2018-12-02T11:42:28.662Z,4.53
2018-12-02T11:43:38.836Z,4.47
2018-12-02T11:44:48.993Z,4.51
2018-12-02T11:45:58.855Z,4.56
2018-12-02T11:47:09.346Z,4.61
2018-12-02T11:48:19.942Z,4.71
2018-12-02T11:49:30.190Z,4.72
2018-12-02T11:50:40.363Z,4.72
2018-12-02T11:51:50.548Z,4.69
2018-12-02T11:53:00.710Z,4.83
2018-12-02T11:54:10.638Z,4.74
2018-12-02T11:55:20.682Z,4.68
2018-12-02T11:56:30.673Z,4.74
2018-12-02T11:57:40.989Z,4.69
2018-12-02T11:58:51.176Z,4.68
2018-12-02T12:00:01.437Z,4.71
2018-12-02T12:01:12.301Z,4.71
2018-12-02T12:02:22.434Z,4.66
2018-12-02T12:03:32.603Z,4.68
2018-12-02T12:04:42.757Z,4.66
2018-12-02T12:05:52.992Z,4.78
2018-12-02T12:07:05.825Z,4.79
2018-12-02T12:08:15.987Z,4.87
2018-12-02T12:09:25.863Z,4.79
2018-12-02T12:10:36.030Z,4.85
2018-12-02T12:11:46.176Z,4.85
2018-12-02T12:12:56.329Z,4.83
2018-12-02T12:14:07.367Z,4.74
2018-12-02T12:15:17.319Z,4.75
2018-12-02T12:16:27.499Z,4.79
2018-12-02T12:17:37.758Z,4.72
2018-12-02T12:18:47.911Z,4.78
2018-12-02T12:19:58.359Z,4.65
2018-12-02T12:21:10.866Z,4.72
2018-12-02T12:22:21.052Z,4.65
2018-12-02T12:23:31.337Z,4.54
2018-12-02T12:24:41.499Z,4.51
2018-12-02T12:25:51.385Z,4.48
2018-12-02T12:27:02.773Z,4.42
2018-12-02T12:28:12.590Z,4.51
2018-12-02T12:29:22.773Z,4.5
2018-12-02T12:30:33.040Z,4.48
2018-12-02T12:31:42.918Z,4.47
2018-12-02T12:32:53.075Z,4.5
2018-12-02T12:34:03.763Z,4.39
2018-12-02T12:35:13.899Z,4.38
2018-12-02T12:36:24.068Z,4.51
2018-12-02T12:37:33.698Z,4.39
2018-12-02T12:38:44.055Z,4.54
2018-12-02T12:39:54.302Z,4.47
2018-12-02T12:41:04.264Z,4.46
2018-12-02T12:42:14.431Z,4.53
2018-12-02T12:43:24.621Z,4.56
2018-12-02T12:44:35.078Z,4.54
2018-12-02T12:45:45.280Z,4.54
2018-12-02T12:46:55.480Z,4.6
2018-12-02T12:48:06.066Z,4.61
2018-12-02T12:49:15.924Z,4.6
2018-12-02T12:50:26.085Z,4.6
2018-12-02T12:51:39.786Z,4.68
2018-12-02T12:52:50.119Z,4.65
2018-12-02T12:54:00.280Z,4.6
2018-12-02T12:55:10.432Z,4.61
2018-12-02T12:56:20.354Z,4.56
2018-12-02T12:57:30.771Z,4.57
2018-12-02T12:58:40.977Z,4.64
2018-12-02T12:59:51.122Z,4.56
2018-12-02T13:01:01.290Z,4.65
2018-12-02T13:02:11.438Z,4.65
2018-12-02T13:03:21.038Z,4.68
2018-12-02T13:04:31.190Z,4.74
2018-12-02T13:05:41.346Z,4.71
2018-12-02T13:06:51.502Z,4.75
2018-12-02T13:08:02.626Z,4.69
2018-12-02T13:09:12.860Z,4.76
2018-12-02T13:10:23.054Z,4.83
2018-12-02T13:11:33.221Z,4.83
2018-12-02T13:12:43.368Z,4.84
2018-12-02T13:13:53.495Z,4.85
2018-12-02T13:15:03.685Z,4.9
2018-12-02T13:16:13.834Z,4.83
2018-12-02T13:17:23.973Z,4.95
2018-12-02T13:18:34.135Z,4.95
2018-12-02T13:19:44.320Z,5.03
2018-12-02T13:20:54.498Z,5.03
2018-12-02T13:22:04.681Z,5.05
2018-12-02T13:23:15.332Z,5.02
2018-12-02T13:24:25.491Z,5.13
2018-12-02T13:25:35.653Z,5.03
2018-12-02T13:26:46.110Z,5.18
2018-12-02T13:27:56.005Z,5.23
2018-12-02T13:29:08.302Z,5.23
2018-12-02T13:30:18.450Z,5.21
2018-12-02T13:31:28.696Z,5.31
2018-12-02T13:32:38.874Z,5.39
2018-12-02T13:33:49.054Z,5.36
2018-12-02T13:34:59.197Z,5.27
2018-12-02T13:36:09.337Z,5.42
2018-12-02T13:37:19.514Z,5.36
2018-12-02T13:38:29.450Z,5.42
2018-12-02T13:39:39.590Z,5.28
2018-12-02T13:40:49.812Z,5.26
2018-12-02T13:42:00.010Z,5.27
2018-12-02T13:43:09.961Z,5.28
2018-12-02T13:44:20.175Z,5.26
2018-12-02T13:45:30.334Z,5.28
2018-12-02T13:46:40.222Z,5.24
2018-12-02T13:47:50.105Z,5.28
2018-12-02T13:49:00.489Z,5.18
2018-12-02T13:50:10.662Z,5.18
2018-12-02T13:51:21.069Z,5.2
2018-12-02T13:52:32.590Z,5.2
2018-12-02T13:53:43.963Z,5.16
2018-12-02T13:54:55.662Z,5.13
2018-12-02T13:56:08.031Z,5.16
2018-12-02T13:57:18.436Z,5.15
2018-12-02T13:58:28.837Z,5.06
2018-12-02T13:59:38.981Z,5.12
2018-12-02T14:00:49.142Z,5.16
2018-12-02T14:01:59.587Z,5.12
2018-12-02T14:03:09.831Z,5.09
2018-12-02T14:04:19.967Z,5.08
2018-12-02T14:05:30.417Z,5.13
2018-12-02T14:06:40.263Z,5.09
2018-12-02T14:07:50.428Z,5.02
2018-12-02T14:09:01.426Z,5.03
2018-12-02T14:10:11.709Z,5.26
2018-12-02T14:11:21.975Z,5.31
2018-12-02T14:12:32.362Z,5.28
2018-12-02T14:13:42.562Z,5.28
2018-12-02T14:14:53.145Z,5.3
2018-12-02T14:16:03.828Z,5.28
2018-12-02T14:17:13.728Z,5.26
2018-12-02T14:18:24.046Z,5.36
2018-12-02T14:19:36.907Z,5.28
2018-12-02T14:20:46.790Z,5.28
2018-12-02T14:21:56.952Z,5.31
2018-12-02T14:23:06.858Z,5.41
2018-12-02T14:24:17.006Z,5.37
2018-12-02T14:25:27.143Z,5.39
2018-12-02T14:26:37.026Z,5.39
2018-12-02T14:27:46.929Z,5.37
2018-12-02T14:28:57.128Z,5.31
2018-12-02T14:30:07.307Z,5.41
2018-12-02T14:31:17.520Z,5.44
2018-12-02T14:32:27.672Z,5.46
2018-12-02T14:33:40.570Z,5.41
2018-12-02T14:34:50.848Z,5.24
2018-12-02T14:36:00.751Z,5.45
2018-12-02T14:37:10.938Z,5.34
2018-12-02T14:38:21.079Z,5.27
2018-12-02T14:39:31.222Z,5.34
2018-12-02T14:40:41.366Z,5.28
2018-12-02T14:41:51.259Z,5.37
2018-12-02T14:43:01.402Z,5.26
2018-12-02T14:44:11.300Z,5.3
2018-12-02T14:45:21.453Z,5.3
2018-12-02T14:46:31.346Z,5.18
2018-12-02T14:47:41.525Z,5.15
2018-12-02T14:48:51.726Z,5.23
2018-12-02T14:50:03.664Z,5.15
2018-12-02T14:51:13.814Z,5.13
2018-12-02T14:52:23.972Z,5.12
2018-12-02T14:53:34.077Z,5.05
2018-12-02T14:54:44.224Z,5.02
2018-12-02T14:55:54.380Z,5.05
2018-12-02T14:57:04.540Z,4.95
2018-12-02T14:58:14.675Z,5.03
2018-12-02T14:59:24.817Z,4.88
2018-12-02T15:00:34.941Z,4.87
2018-12-02T15:01:45.091Z,4.79
2018-12-02T15:02:55.527Z,4.75
2018-12-02T15:04:05.644Z,4.76
2018-12-02T15:05:15.545Z,4.66
2018-12-02T15:06:25.971Z,4.71
2018-12-02T15:07:35.881Z,4.64
2018-12-02T15:08:46.753Z,4.58
2018-12-02T15:09:56.906Z,4.51
2018-12-02T15:11:07.135Z,4.44
2018-12-02T15:12:17.004Z,4.47
2018-12-02T15:13:27.164Z,4.39
2018-12-02T15:14:37.187Z,4.42
2018-12-02T15:15:47.109Z,4.38
2018-12-02T15:16:57.277Z,4.39
2018-12-02T15:18:07.691Z,4.38
2018-12-02T15:19:18.290Z,4.42
2018-12-02T15:20:28.510Z,4.36
2018-12-02T15:21:39.111Z,4.42
2018-12-02T15:22:49.263Z,4.33
2018-12-02T15:23:59.476Z,4.38
2018-12-02T15:25:09.628Z,4.36
2018-12-02T15:26:19.920Z,4.35
2018-12-02T15:27:30.084Z,4.36
2018-12-02T15:28:40.237Z,4.32
2018-12-02T15:29:50.668Z,4.3
2018-12-02T15:31:03.016Z,4.3
2018-12-02T15:32:13.260Z,4.36
2018-12-02T15:33:23.402Z,4.33
2018-12-02T15:34:33.558Z,4.33
2018-12-02T15:35:43.786Z,4.38
2018-12-02T15:36:53.990Z,4.4
2018-12-02T15:38:04.418Z,4.38
2018-12-02T15:39:14.635Z,4.36
2018-12-02T15:40:24.893Z,4.42
2018-12-02T15:41:34.816Z,4.42
2018-12-02T15:42:45.551Z,4.38
2018-12-02T15:43:55.757Z,4.38
2018-12-02T15:45:05.909Z,4.38
2018-12-02T15:46:16.069Z,4.36
2018-12-02T15:47:26.295Z,4.33
2018-12-02T15:48:36.489Z,4.38
2018-12-02T15:49:46.613Z,4.36
2018-12-02T15:50:56.805Z,4.4
2018-12-02T15:52:06.963Z,4.39
2018-12-02T15:53:17.179Z,4.44
2018-12-02T15:54:27.581Z,4.44
2018-12-02T15:55:37.902Z,4.38
2018-12-02T15:56:48.378Z,4.36
2018-12-02T15:57:58.319Z,4.38
2018-12-02T15:59:08.534Z,4.32
2018-12-02T16:00:18.756Z,4.38
2018-12-02T16:01:29.470Z,4.46
2018-12-02T16:02:39.542Z,4.39
2018-12-02T16:03:49.742Z,4.39
2018-12-02T16:04:59.903Z,4.42
2018-12-02T16:06:10.133Z,4.35
2018-12-02T16:07:20.436Z,4.46
2018-12-02T16:08:30.854Z,4.48
2018-12-02T16:09:41.051Z,4.47
2018-12-02T16:10:51.714Z,4.46
2018-12-02T16:12:01.675Z,4.5
2018-12-02T16:13:11.947Z,4.42
2018-12-02T16:14:22.128Z,4.54
2018-12-02T16:15:32.342Z,4.53
2018-12-02T16:16:42.549Z,4.54